createdAt,value
2022-08-02T00:01:35.236Z,3.10
2022-08-02T00:04:09.837Z,3.28
2022-08-02T00:06:41.551Z,3.13
2022-08-02T00:09:12.022Z,3.03
2022-08-02T00:11:43.157Z,2.85
2022-08-02T00:14:14.312Z,3.05
2022-08-02T00:16:45.789Z,3.67
2022-08-02T00:19:18.411Z,3.30
2022-08-02T00:21:49.753Z,3.15
2022-08-02T00:24:29.995Z,3.28
2022-08-02T00:27:09.277Z,3.00
2022-08-02T00:29:42.683Z,3.25
2022-08-02T00:32:23.932Z,3.08
2022-08-02T00:34:57.348Z,3.30
2022-08-02T00:37:28.438Z,2.80
2022-08-02T00:39:59.840Z,2.92
2022-08-02T00:42:30.840Z,2.80
2022-08-02T00:45:01.785Z,3.10
2022-08-02T00:47:33.070Z,2.80
2022-08-02T00:50:05.641Z,2.85
2022-08-02T00:52:36.858Z,2.80
2022-08-02T00:55:09.258Z,2.95
2022-08-02T00:57:42.638Z,2.92
2022-08-02T01:00:15.137Z,2.80
2022-08-02T01:02:46.463Z,2.90
2022-08-02T01:05:21.027Z,2.92
2022-08-02T01:07:52.158Z,2.75
2022-08-02T01:10:23.087Z,2.50
2022-08-02T01:12:53.614Z,2.60
2022-08-02T01:15:36.049Z,2.40
2022-08-02T01:18:16.193Z,2.70
2022-08-02T01:21:43.504Z,2.38
2022-08-02T01:24:52.008Z,2.20
2022-08-02T01:27:43.447Z,2.65
2022-08-02T01:30:17.285Z,2.65
2022-08-02T01:32:58.457Z,2.20
2022-08-02T01:35:51.079Z,2.60
2022-08-02T01:38:32.396Z,2.83
2022-08-02T01:41:06.123Z,2.83
2022-08-02T01:43:48.956Z,2.70
2022-08-02T01:46:24.013Z,2.50
2022-08-02T01:49:01.637Z,2.53
2022-08-02T01:51:52.944Z,2.30
2022-08-02T01:54:30.845Z,2.60
2022-08-02T01:57:06.809Z,2.83
2022-08-02T01:59:39.726Z,2.58
2022-08-02T02:02:15.410Z,2.90
2022-08-02T02:04:50.318Z,2.75
2022-08-02T02:07:23.713Z,3.10
2022-08-02T02:09:57.396Z,2.72
2022-08-02T02:12:30.912Z,3.10
2022-08-02T02:15:04.763Z,2.95
2022-08-02T02:17:53.100Z,3.08
2022-08-02T02:20:31.451Z,3.22
2022-08-02T02:23:03.167Z,3.35
2022-08-02T02:25:41.850Z,3.22
2022-08-02T02:28:29.441Z,2.97
2022-08-02T02:31:09.758Z,3.25
2022-08-02T02:33:51.677Z,3.58
2022-08-02T02:36:25.503Z,3.35
2022-08-02T02:38:58.827Z,3.38
2022-08-02T02:41:30.661Z,3.63
2022-08-02T02:44:07.150Z,3.33
2022-08-02T02:46:39.899Z,3.30
2022-08-02T02:49:15.105Z,3.28
2022-08-02T02:51:47.359Z,3.53
2022-08-02T02:54:29.838Z,3.70
2022-08-02T02:57:08.015Z,3.55
2022-08-02T02:59:49.373Z,3.45
2022-08-02T03:02:22.728Z,3.38
2022-08-02T03:04:58.304Z,3.50
2022-08-02T03:07:29.881Z,3.22
2022-08-02T03:10:01.671Z,3.63
2022-08-02T03:12:34.251Z,3.88
2022-08-02T03:15:10.398Z,3.63
2022-08-02T03:17:44.298Z,3.90
2022-08-02T03:20:23.244Z,3.85
2022-08-02T03:22:54.442Z,3.47
2022-08-02T03:25:25.892Z,3.58
2022-08-02T03:27:56.446Z,4.05
2022-08-02T03:30:28.572Z,3.97
2022-08-02T03:33:00.046Z,4.03
2022-08-02T03:35:33.050Z,4.13
2022-08-02T03:38:04.675Z,3.92
2022-08-02T03:40:36.074Z,3.90
2022-08-02T03:43:08.819Z,4.30
2022-08-02T03:45:43.004Z,4.10
2022-08-02T03:48:31.805Z,4.05
2022-08-02T03:51:08.967Z,4.25
2022-08-02T03:53:41.138Z,3.95
2022-08-02T03:56:13.604Z,4.13
2022-08-02T03:58:48.866Z,4.07
2022-08-02T04:01:19.948Z,4.57
2022-08-02T04:03:50.915Z,4.13
2022-08-02T04:06:28.375Z,4.38
2022-08-02T04:08:59.963Z,4.25
2022-08-02T04:11:34.424Z,4.35
2022-08-02T04:14:08.254Z,4.55
2022-08-02T04:16:47.271Z,4.13
2022-08-02T04:19:25.340Z,4.15
2022-08-02T04:22:00.919Z,4.35
2022-08-02T04:24:37.613Z,4.18
2022-08-02T04:27:51.278Z,4.00
2022-08-02T04:30:05.597Z,5.65
2022-08-02T04:32:38.772Z,4.10
2022-08-02T04:35:19.117Z,3.72
2022-08-02T04:38:08.907Z,3.78
2022-08-02T04:40:42.337Z,3.90
2022-08-02T04:43:13.400Z,3.78
2022-08-02T04:45:45.581Z,3.75
2022-08-02T04:48:16.663Z,3.83
2022-08-02T04:50:48.146Z,4.10
2022-08-02T04:53:22.100Z,3.80
2022-08-02T04:55:53.971Z,3.88
2022-08-02T04:58:39.866Z,3.90
2022-08-02T05:01:11.817Z,4.00
2022-08-02T05:03:41.967Z,3.63
2022-08-02T05:06:18.877Z,3.30
2022-08-02T05:08:54.135Z,3.55
2022-08-02T05:11:34.446Z,3.67
2022-08-02T05:14:09.182Z,3.47
2022-08-02T05:16:40.262Z,3.85
2022-08-02T05:19:11.348Z,3.53
2022-08-02T05:21:42.380Z,2.88
2022-08-02T05:24:15.731Z,2.80
2022-08-02T05:26:46.922Z,3.00
2022-08-02T05:29:18.303Z,3.03
2022-08-02T05:31:49.416Z,2.92
2022-08-02T05:34:20.702Z,2.83
2022-08-02T05:36:52.406Z,2.75
2022-08-02T05:39:25.400Z,2.70
2022-08-02T05:42:02.735Z,2.65
2022-08-02T05:44:33.512Z,3.50
2022-08-02T05:47:05.583Z,2.65
2022-08-02T05:49:35.889Z,2.42
2022-08-02T05:52:16.555Z,2.40
2022-08-02T05:55:00.719Z,2.67
2022-08-02T05:57:53.932Z,2.30
2022-08-02T06:00:25.868Z,2.65
2022-08-02T06:03:19.196Z,2.22
2022-08-02T06:06:03.717Z,2.67
2022-08-02T06:08:48.045Z,2.35
2022-08-02T06:11:25.240Z,2.60
2022-08-02T06:13:57.638Z,2.50
2022-08-02T06:16:32.773Z,2.55
2022-08-02T06:19:04.834Z,2.42
2022-08-02T06:22:31.847Z,2.63
2022-08-02T06:24:30.935Z,2.65
2022-08-02T06:27:06.226Z,2.30
2022-08-02T06:29:40.689Z,2.50
2022-08-02T06:32:11.818Z,2.60
2022-08-02T06:34:44.231Z,2.60
2022-08-02T06:37:29.824Z,2.90
2022-08-02T06:40:11.980Z,2.38
2022-08-02T06:42:54.706Z,2.33
2022-08-02T06:45:25.918Z,2.40
2022-08-02T06:47:58.014Z,2.50
2022-08-02T06:50:29.721Z,3.17
2022-08-02T06:53:01.136Z,2.70
2022-08-02T06:55:32.800Z,2.55
2022-08-02T06:58:17.531Z,2.63
2022-08-02T07:00:47.994Z,2.42
2022-08-02T07:03:18.664Z,2.38
2022-08-02T07:05:49.654Z,2.55
2022-08-02T07:08:21.422Z,2.33
2022-08-02T07:10:52.290Z,2.53
2022-08-02T07:13:25.240Z,2.35
2022-08-02T07:15:56.300Z,2.40
2022-08-02T07:18:28.160Z,2.58
2022-08-02T07:20:59.445Z,2.60
2022-08-02T07:23:30.934Z,2.13
2022-08-02T07:26:05.436Z,2.15
2022-08-02T07:28:39.291Z,2.30
2022-08-02T07:31:10.555Z,3.92
2022-08-02T07:33:44.417Z,2.95
2022-08-02T07:36:22.427Z,2.20
2022-08-02T07:38:54.319Z,2.40
2022-08-02T07:41:26.501Z,2.08
2022-08-02T07:43:59.014Z,2.10
2022-08-02T07:46:29.486Z,2.50
2022-08-02T07:49:00.336Z,2.22
2022-08-02T07:51:32.710Z,3.58
2022-08-02T07:54:04.769Z,2.50
2022-08-02T07:56:35.852Z,2.13
2022-08-02T07:59:10.983Z,2.38
2022-08-02T08:01:45.034Z,4.30
2022-08-02T08:04:16.593Z,2.35
2022-08-02T08:06:50.792Z,2.15
2022-08-02T08:09:22.940Z,2.03
2022-08-02T08:11:54.242Z,2.00
2022-08-02T08:14:27.245Z,2.20
2022-08-02T08:16:58.228Z,2.10
2022-08-02T08:19:43.948Z,2.20
2022-08-02T08:22:20.695Z,2.10
2022-08-02T08:24:52.406Z,2.20
2022-08-02T08:27:23.705Z,2.10
2022-08-02T08:29:56.882Z,2.15
2022-08-02T08:32:27.639Z,2.00
2022-08-02T08:34:58.070Z,2.42
2022-08-02T08:37:29.201Z,2.10
2022-08-02T08:40:00.213Z,1.95
2022-08-02T08:42:32.029Z,1.98
2022-08-02T08:45:04.899Z,2.00
2022-08-02T08:47:38.429Z,2.50
2022-08-02T08:50:26.937Z,2.00
2022-08-02T08:53:08.227Z,2.20
2022-08-02T08:55:40.830Z,2.40
2022-08-02T08:58:11.434Z,2.30
2022-08-02T09:00:44.685Z,2.40
2022-08-02T09:03:15.979Z,2.22
2022-08-02T09:05:47.777Z,2.15
2022-08-02T09:08:19.580Z,1.90
2022-08-02T09:10:50.965Z,2.30
2022-08-02T09:13:31.371Z,1.92
2022-08-02T09:16:18.323Z,1.95
2022-08-02T09:18:50.490Z,2.28
2022-08-02T09:21:21.558Z,2.22
2022-08-02T09:23:56.143Z,2.70
2022-08-02T09:26:28.957Z,2.05
2022-08-02T09:29:05.493Z,2.03
2022-08-02T09:31:40.697Z,2.13
2022-08-02T09:34:22.935Z,2.30
2022-08-02T09:36:55.427Z,2.20
2022-08-02T09:39:28.101Z,2.35
2022-08-02T09:42:14.097Z,2.33
2022-08-02T09:44:58.304Z,2.03
2022-08-02T09:47:37.306Z,2.08
2022-08-02T09:50:14.870Z,2.08
2022-08-02T09:52:46.363Z,2.28
2022-08-02T09:55:17.074Z,2.10
2022-08-02T09:57:51.063Z,2.35
2022-08-02T10:00:43.410Z,1.90
2022-08-02T10:03:22.169Z,2.10
2022-08-02T10:06:02.230Z,2.10
2022-08-02T10:08:35.335Z,2.05
2022-08-02T10:11:06.477Z,2.03
2022-08-02T10:13:38.624Z,1.92
2022-08-02T10:16:09.336Z,1.90
2022-08-02T10:18:43.140Z,2.25
2022-08-02T10:21:30.444Z,1.90
2022-08-02T10:24:10.202Z,1.92
2022-08-02T10:26:45.541Z,2.00
2022-08-02T10:29:22.283Z,1.95
2022-08-02T10:32:00.395Z,1.92
2022-08-02T10:34:38.407Z,1.80
2022-08-02T10:37:15.037Z,2.13
2022-08-02T10:39:50.867Z,1.88
2022-08-02T10:42:51.358Z,2.53
2022-08-02T10:45:25.864Z,2.08
2022-08-02T10:48:06.761Z,1.88
2022-08-02T10:51:07.119Z,1.83
2022-08-02T10:53:37.965Z,2.00
2022-08-02T10:56:09.770Z,1.95
2022-08-02T10:58:41.455Z,2.00
2022-08-02T11:01:38.894Z,1.95
2022-08-02T11:04:11.879Z,1.90
2022-08-02T11:07:17.748Z,1.77
2022-08-02T11:09:49.459Z,1.80
2022-08-02T11:12:22.769Z,1.92
2022-08-02T11:15:07.722Z,1.90
2022-08-02T11:17:57.954Z,1.98
2022-08-02T11:20:29.295Z,2.10
2022-08-02T11:23:45.191Z,2.22
2022-08-02T11:26:48.438Z,2.00
2022-08-02T11:29:20.829Z,2.00
2022-08-02T11:31:52.739Z,1.83
2022-08-02T11:34:36.824Z,1.98
2022-08-02T11:37:10.575Z,1.80
2022-08-02T11:39:43.187Z,1.90
2022-08-02T11:42:14.029Z,2.28
2022-08-02T11:44:47.840Z,2.53
2022-08-02T11:47:20.627Z,2.00
2022-08-02T11:49:52.015Z,2.45
2022-08-02T11:52:41.994Z,2.22
2022-08-02T11:55:16.172Z,2.10
2022-08-02T11:58:03.228Z,1.98
2022-08-02T12:00:37.253Z,2.00
2022-08-02T12:03:10.626Z,2.10
2022-08-02T12:06:04.712Z,2.20
2022-08-02T12:08:32.902Z,1.88
2022-08-02T12:11:07.873Z,1.85
2022-08-02T12:13:56.529Z,2.20
2022-08-02T12:16:44.882Z,2.17
2022-08-02T12:19:27.939Z,2.00
2022-08-02T12:22:19.852Z,2.03
2022-08-02T12:24:57.244Z,1.85
2022-08-02T12:27:42.198Z,1.88
2022-08-02T12:30:16.098Z,2.33
2022-08-02T12:32:48.334Z,1.92
2022-08-02T12:35:26.402Z,1.85
2022-08-02T12:37:59.508Z,1.85
2022-08-02T12:40:36.761Z,2.00
2022-08-02T12:43:18.844Z,1.80
2022-08-02T12:45:53.621Z,2.10
2022-08-02T12:48:56.498Z,2.22
2022-08-02T12:51:50.872Z,1.80
2022-08-02T12:54:31.492Z,1.85
2022-08-02T12:57:15.055Z,1.70
2022-08-02T12:59:55.863Z,1.90
2022-08-02T13:02:35.035Z,1.90
2022-08-02T13:05:06.914Z,1.63
2022-08-02T13:07:37.840Z,2.13
2022-08-02T13:10:09.365Z,1.90
2022-08-02T13:12:41.101Z,1.85
2022-08-02T13:15:49.149Z,1.80
2022-08-02T13:18:06.131Z,1.98
2022-08-02T13:20:40.246Z,1.85
2022-08-02T13:23:21.073Z,2.00
2022-08-02T13:25:55.910Z,1.90
2022-08-02T13:28:27.480Z,1.90
2022-08-02T13:31:20.609Z,1.77
2022-08-02T13:33:51.756Z,2.00
2022-08-02T13:36:22.915Z,1.80
2022-08-02T13:38:54.735Z,1.70
2022-08-02T13:41:26.435Z,2.17
2022-08-02T13:44:06.161Z,1.73
2022-08-02T13:46:45.259Z,1.95
2022-08-02T13:49:19.815Z,2.45
2022-08-02T13:51:51.463Z,2.55
2022-08-02T13:54:22.768Z,2.03
2022-08-02T13:56:54.170Z,2.03
2022-08-02T13:59:56.788Z,2.47
2022-08-02T14:02:18.672Z,2.17
2022-08-02T14:04:49.940Z,1.80
2022-08-02T14:07:22.098Z,2.10
2022-08-02T14:09:52.491Z,2.00
2022-08-02T14:12:23.519Z,2.10
2022-08-02T14:14:55.614Z,1.90
2022-08-02T14:17:30.168Z,1.92
2022-08-02T14:20:01.842Z,1.77
2022-08-02T14:22:32.409Z,2.28
2022-08-02T14:25:09.694Z,1.77
2022-08-02T14:27:40.202Z,2.05
2022-08-02T14:30:12.114Z,1.92
2022-08-02T14:32:44.718Z,2.17
2022-08-02T14:35:16.617Z,2.00
2022-08-02T14:37:48.993Z,1.88
2022-08-02T14:40:27.882Z,1.90
2022-08-02T14:43:04.182Z,2.05
2022-08-02T14:45:39.842Z,1.90
2022-08-02T14:48:15.213Z,1.75
2022-08-02T14:50:46.346Z,1.83
2022-08-02T14:53:16.627Z,1.90
2022-08-02T14:55:48.449Z,2.03
2022-08-02T14:58:19.785Z,2.00
2022-08-02T15:00:51.549Z,2.13
2022-08-02T15:03:29.495Z,1.83
2022-08-02T15:06:01.682Z,1.90
2022-08-02T15:08:33.577Z,2.00
2022-08-02T15:11:04.275Z,1.95
2022-08-02T15:13:38.103Z,2.00
2022-08-02T15:16:13.880Z,2.35
2022-08-02T15:18:47.182Z,1.73
2022-08-02T15:21:41.777Z,2.20
2022-08-02T15:24:11.989Z,1.83
2022-08-02T15:26:43.045Z,2.00
2022-08-02T15:29:14.154Z,1.95
2022-08-02T15:31:46.033Z,1.88
2022-08-02T15:34:18.964Z,1.73
2022-08-02T15:36:50.255Z,1.80
2022-08-02T15:39:21.808Z,1.75
2022-08-02T15:41:55.976Z,2.08
2022-08-02T15:44:27.589Z,2.25
2022-08-02T15:46:58.843Z,1.80
2022-08-02T15:49:31.871Z,1.77
2022-08-02T15:52:05.665Z,1.90
2022-08-02T15:54:36.405Z,1.60
2022-08-02T15:57:08.453Z,1.83
2022-08-02T15:59:39.674Z,1.95
2022-08-02T16:02:11.768Z,1.63
2022-08-02T16:04:44.880Z,1.55
2022-08-02T16:07:15.711Z,1.70
2022-08-02T16:09:46.270Z,1.80
2022-08-02T16:12:17.589Z,2.00
2022-08-02T16:14:48.824Z,1.95
2022-08-02T16:17:48.250Z,1.92
2022-08-02T16:20:14.834Z,1.90
2022-08-02T16:22:46.212Z,2.00
2022-08-02T16:25:17.615Z,2.42
2022-08-02T16:28:06.007Z,2.60
2022-08-02T16:30:39.239Z,2.63
2022-08-02T16:33:10.512Z,2.40
2022-08-02T16:35:47.721Z,2.60
2022-08-02T16:38:18.704Z,2.50
2022-08-02T16:40:49.637Z,1.92
2022-08-02T16:43:22.229Z,2.20
2022-08-02T16:45:53.508Z,2.70
2022-08-02T16:48:25.516Z,2.33
2022-08-02T16:50:58.893Z,2.00
2022-08-02T16:53:58.976Z,1.98
2022-08-02T16:56:29.880Z,2.10
2022-08-02T16:59:02.409Z,2.10
2022-08-02T17:02:03.345Z,1.90
2022-08-02T17:04:25.283Z,2.10
2022-08-02T17:07:01.838Z,2.00
2022-08-02T17:10:02.046Z,2.05
2022-08-02T17:12:23.351Z,2.00
2022-08-02T17:17:45.520Z,2.05
2022-08-02T17:20:17.348Z,1.90
2022-08-02T17:22:52.184Z,1.80
2022-08-02T17:25:24.783Z,1.83
2022-08-02T17:27:56.494Z,2.10
2022-08-02T17:30:28.816Z,1.92
2022-08-02T17:32:59.599Z,1.65
2022-08-02T17:35:40.022Z,2.03
2022-08-02T17:38:26.341Z,1.95
2022-08-02T17:40:59.351Z,2.08
2022-08-02T17:43:31.476Z,1.95
2022-08-02T17:46:03.506Z,2.05
2022-08-02T17:48:55.506Z,1.90
2022-08-02T17:52:15.944Z,2.30
2022-08-02T17:54:21.914Z,1.90
2022-08-02T17:56:54.567Z,1.85
2022-08-02T17:59:31.109Z,1.98
2022-08-02T18:02:13.379Z,1.90
2022-08-02T18:04:48.843Z,2.15
2022-08-02T18:07:25.274Z,1.73
2022-08-02T18:09:58.259Z,2.20
2022-08-02T18:12:30.275Z,2.00
2022-08-02T18:15:00.912Z,1.92
2022-08-02T18:17:32.791Z,2.00
2022-08-02T18:20:10.197Z,2.00
2022-08-02T18:22:44.913Z,2.00
2022-08-02T18:25:37.528Z,1.90
2022-08-02T18:28:10.039Z,1.70
2022-08-02T18:30:42.926Z,1.85
2022-08-02T18:33:57.605Z,2.10
2022-08-02T18:36:06.292Z,1.75
2022-08-02T18:38:39.617Z,2.03
2022-08-02T18:41:18.952Z,2.08
2022-08-02T18:43:52.973Z,1.70
2022-08-02T18:46:24.288Z,1.85
2022-08-02T18:49:06.751Z,1.90
2022-08-02T18:51:46.411Z,1.80
2022-08-02T18:54:26.583Z,2.17
2022-08-02T18:57:04.215Z,1.88
2022-08-02T18:59:55.259Z,2.10
2022-08-02T19:02:26.011Z,1.85
2022-08-02T19:05:00.382Z,1.73
2022-08-02T19:07:50.387Z,1.63
2022-08-02T19:10:23.441Z,1.60
2022-08-02T19:12:58.934Z,1.80
2022-08-02T19:15:31.668Z,1.67
2022-08-02T19:18:02.725Z,1.80
2022-08-02T19:20:35.945Z,1.80
2022-08-02T19:23:10.381Z,1.92
2022-08-02T19:25:50.311Z,2.00
2022-08-02T19:28:29.055Z,1.70
2022-08-02T19:31:00.800Z,1.90
2022-08-02T19:34:04.749Z,1.45
2022-08-02T19:36:22.549Z,1.80
2022-08-02T19:38:57.159Z,1.67
2022-08-02T19:41:28.463Z,2.00
2022-08-02T19:44:26.508Z,1.60
2022-08-02T19:47:00.331Z,1.83
2022-08-02T19:49:39.420Z,1.65
2022-08-02T19:52:21.869Z,1.90
2022-08-02T19:54:57.904Z,1.90
2022-08-02T19:57:34.455Z,1.92
2022-08-02T20:00:13.434Z,1.75
2022-08-02T20:02:52.951Z,1.77
2022-08-02T20:05:27.133Z,1.90
2022-08-02T20:07:59.603Z,1.88
2022-08-02T20:10:32.110Z,1.75
2022-08-02T20:13:04.657Z,2.10
2022-08-02T20:15:55.723Z,1.80
2022-08-02T20:18:30.130Z,2.20
2022-08-02T20:21:01.286Z,1.65
2022-08-02T20:23:34.430Z,1.85
2022-08-02T20:26:09.026Z,1.58
2022-08-02T20:28:39.961Z,1.75
2022-08-02T20:31:12.962Z,1.90
2022-08-02T20:33:55.479Z,1.90
2022-08-02T20:36:27.924Z,1.77
2022-08-02T20:38:59.740Z,1.65
2022-08-02T20:41:36.746Z,1.70
2022-08-02T20:44:15.438Z,1.60
2022-08-02T20:47:04.000Z,1.40
2022-08-02T20:49:40.875Z,1.48
2022-08-02T20:52:23.450Z,1.75
2022-08-02T20:54:55.587Z,1.75
2022-08-02T20:57:48.869Z,1.70
2022-08-02T21:00:18.062Z,1.52
2022-08-02T21:02:54.431Z,1.80
2022-08-02T21:05:43.294Z,1.83
2022-08-02T21:08:16.172Z,2.22
2022-08-02T21:10:52.015Z,2.35
2022-08-02T21:13:26.169Z,1.77
2022-08-02T21:16:02.165Z,1.75
2022-08-02T21:18:42.823Z,1.80
2022-08-02T21:21:14.619Z,1.83
2022-08-02T21:23:48.923Z,2.85
2022-08-02T21:26:30.526Z,1.85
2022-08-02T21:29:06.092Z,1.77
2022-08-02T21:31:37.649Z,1.83
2022-08-02T21:34:26.588Z,1.65
2022-08-02T21:36:58.650Z,1.85
2022-08-02T21:39:30.401Z,1.80
2022-08-02T21:42:01.878Z,1.90
2022-08-02T21:44:33.274Z,2.08
2022-08-02T21:47:04.823Z,1.90
2022-08-02T21:50:08.687Z,1.85
2022-08-02T21:52:31.398Z,1.88
2022-08-02T21:55:05.980Z,1.92
2022-08-02T21:57:40.094Z,2.03
2022-08-02T22:00:16.665Z,2.05
2022-08-02T22:03:00.761Z,1.80
2022-08-02T22:05:53.893Z,1.70
2022-08-02T22:08:25.169Z,1.88
2022-08-02T22:11:16.851Z,1.88
2022-08-02T22:13:48.964Z,1.80
2022-08-02T22:16:21.901Z,1.83
2022-08-02T22:18:53.668Z,1.80
2022-08-02T22:21:32.369Z,1.60
2022-08-02T22:24:19.531Z,1.48
2022-08-02T22:26:58.965Z,1.55
2022-08-02T22:29:30.965Z,1.60
2022-08-02T22:32:03.205Z,1.90
2022-08-02T22:34:51.661Z,1.63
2022-08-02T22:38:17.052Z,1.73
2022-08-02T22:40:16.350Z,1.48
2022-08-02T22:42:47.521Z,1.70
2022-08-02T22:45:18.832Z,1.20
2022-08-02T22:47:51.104Z,1.65
2022-08-02T22:50:22.615Z,1.50
2022-08-02T22:52:55.533Z,1.33
2022-08-02T22:55:32.287Z,1.45
2022-08-02T22:58:04.539Z,1.27
2022-08-02T22:58:37.496Z,2.00
2022-08-02T23:00:36.030Z,1.70
2022-08-02T23:03:07.443Z,1.73
2022-08-02T23:05:39.532Z,1.55
2022-08-02T23:08:12.800Z,1.90
2022-08-02T23:10:44.073Z,1.80
2022-08-02T23:13:15.113Z,1.90
2022-08-02T23:16:03.828Z,2.13
2022-08-02T23:19:02.686Z,1.88
2022-08-02T23:22:02.282Z,2.00
2022-08-02T23:24:38.949Z,1.90
2022-08-02T23:27:10.842Z,1.52
2022-08-02T23:29:42.499Z,1.80
2022-08-02T23:32:14.762Z,1.67
2022-08-02T23:34:46.854Z,1.52
2022-08-02T23:37:23.139Z,1.50
2022-08-02T23:39:56.315Z,1.73
2022-08-02T23:42:27.468Z,1.90
2022-08-02T23:44:58.345Z,1.90
2022-08-02T23:47:29.561Z,1.60
2022-08-02T23:50:00.459Z,1.73
2022-08-02T23:52:31.773Z,1.77
2022-08-02T23:55:05.468Z,1.50
2022-08-02T23:57:36.453Z,1.60
